Change the Weather History Date:

Thursday, May 1, 2014

  Actual Average Record
Temperature  
Mean Temperature 57 °F -  
Max Temperature 66 °F 78 °F 88 °F (1959)
Min Temperature 48 °F 51 °F 39 °F (1979)
Degree Days  
Heating Degree Days 8    
Growing Degree Days 7 (Base 50)    
Moisture  
Dew Point 46 °F    
Average Humidity 71    
Maximum Humidity 100    
Minimum Humidity 40    
Precipitation  
Precipitation 0.00 in - - ()
Sea Level Pressure  
Sea Level Pressure 30.01 in    
Wind  
Wind Speed 4 mph (NW)    
Max Wind Speed 9 mph    
Max Gust Speed 17 mph    
Visibility 10 miles    
Events      
Averages and records for this station are not official NWS values.
T = Trace of Precipitation, MM = Missing Value Source: NWS Daily Summary

Daily Weather History Graph

Daily Weather History Graph

Search for Another Location

Airport or City:

Trip Planner

Search our weather history database for the weather conditions in past years. The results will help you decide how hot, cold, wet, or windy it might be!

Date:

Astronomy

May. 01, 2014 Rise Set
Actual Time 6:52 AM EDT 8:23 PM EDT
Civil Twilight 6:25 AM EDT 8:50 PM EDT
Nautical Twilight 5:53 AM EDT 9:22 PM EDT
Astronomical Twilight 5:20 AM EDT 9:55 PM EDT
Moon 8:41 AM EDT (5/1) 10:53 PM EDT (5/1)
Length of Visible Light 14h 24m
Length of Day
13h 31m
Waxing Crescent, 6% of the Moon is Illuminated
May 1
Waxing Crescent
May 6
First Quarter
May 14
Full
May 21
Last Quarter
May 28
New

Hourly Weather History & Observations

Time (EDT) Temp. Dew Point Humidity Pressure Visibility Wind Dir Wind Speed Gust Speed Precip Events Conditions
12:12 AM 60.8 °F 60.8 °F 100% 29.97 in 10.0 mi WNW 4.6 mph - N/A   Scattered Clouds
12:32 AM 60.8 °F 59.0 °F 94% 29.96 in 10.0 mi WNW 4.6 mph - N/A   Clear
12:52 AM 59.0 °F 57.2 °F 94% 29.97 in 10.0 mi NW 6.9 mph - N/A   Clear
1:12 AM 59.0 °F 55.4 °F 88% 29.97 in 10.0 mi NW 6.9 mph - N/A   Clear
1:32 AM 57.2 °F 55.4 °F 94% 29.98 in 10.0 mi WNW 8.1 mph - N/A   Mostly Cloudy
1:52 AM 55.4 °F 51.8 °F 88% 29.99 in 10.0 mi NW 6.9 mph - N/A   Overcast
2:12 AM 55.4 °F 51.8 °F 88% 30.00 in 10.0 mi NW 3.5 mph - N/A   Overcast
2:32 AM 53.6 °F 51.8 °F 94% 30.00 in 10.0 mi NW 3.5 mph - N/A   Overcast
2:52 AM 53.6 °F 50.0 °F 88% 29.99 in 10.0 mi NW 4.6 mph - N/A   Mostly Cloudy
3:12 AM 53.6 °F 50.0 °F 88% 29.99 in 10.0 mi Calm Calm - N/A   Scattered Clouds
3:32 AM 51.8 °F 50.0 °F 94% 30.00 in 10.0 mi Calm Calm - N/A   Clear
3:52 AM 51.8 °F 50.0 °F 94% 30.00 in 10.0 mi Calm Calm - N/A   Clear
4:12 AM 51.8 °F 50.0 °F 94% 30.00 in 10.0 mi Calm Calm - N/A   Clear
4:32 AM 51.8 °F 50.0 °F 94% 30.00 in 10.0 mi WNW 3.5 mph - N/A   Clear
4:52 AM 50.0 °F 50.0 °F 100% 30.01 in 10.0 mi Calm Calm - N/A   Clear
5:12 AM 50.0 °F 50.0 °F 100% 30.02 in 10.0 mi Calm Calm - N/A   Scattered Clouds
5:31 AM 50.0 °F 48.2 °F 94% 30.01 in 10.0 mi Calm Calm - N/A   Scattered Clouds
5:52 AM 50.0 °F 48.2 °F 94% 30.01 in 10.0 mi WNW 3.5 mph - N/A   Clear
6:12 AM 50.0 °F 46.4 °F 87% 30.01 in 10.0 mi Calm Calm - N/A   Clear
6:32 AM 48.2 °F 46.4 °F 93% 30.02 in 10.0 mi Calm Calm - N/A   Clear
6:52 AM 48.2 °F 46.4 °F 93% 30.02 in 10.0 mi WNW 3.5 mph - N/A   Clear
7:12 AM 48.2 °F 46.4 °F 93% 30.02 in 10.0 mi NW 3.5 mph - N/A   Clear
7:32 AM 48.2 °F 46.4 °F 93% 30.02 in 10.0 mi WNW 3.5 mph - N/A   Clear
7:52 AM 50.0 °F 46.4 °F 87% 30.03 in 10.0 mi Calm Calm - N/A   Clear
8:12 AM 50.0 °F 46.4 °F 87% 30.03 in 10.0 mi NW 3.5 mph - N/A   Clear
8:32 AM 51.8 °F 46.4 °F 82% 30.04 in 10.0 mi NNW 3.5 mph - N/A   Clear
9:12 AM 53.6 °F 46.4 °F 77% 30.05 in 10.0 mi NNW 8.1 mph - N/A   Clear
9:32 AM 53.6 °F 46.4 °F 77% 30.05 in 10.0 mi NNW 9.2 mph - N/A   Clear
9:52 AM 53.6 °F 44.6 °F 72% 30.06 in 10.0 mi NW 5.8 mph - N/A   Clear
10:12 AM 53.6 °F 44.6 °F 72% 30.06 in 10.0 mi NW 9.2 mph - N/A   Scattered Clouds
10:32 AM 55.4 °F 42.8 °F 63% 30.05 in 10.0 mi WNW 6.9 mph - N/A   Mostly Cloudy
10:51 AM 55.4 °F 44.6 °F 67% 30.05 in 10.0 mi WNW 6.9 mph - N/A   Overcast
11:12 AM 55.4 °F 44.6 °F 67% 30.06 in 10.0 mi NNW 8.1 mph - N/A   Scattered Clouds
11:32 AM 57.2 °F 42.8 °F 59% 30.05 in 10.0 mi North 9.2 mph - N/A   Scattered Clouds
11:52 AM 57.2 °F 42.8 °F 59% 30.06 in 10.0 mi WNW 9.2 mph 17.3 mph N/A   Scattered Clouds
12:12 PM 59.0 °F 42.8 °F 55% 30.05 in 10.0 mi NW 8.1 mph - N/A   Scattered Clouds
12:32 PM 59.0 °F 42.8 °F 55% 30.05 in 10.0 mi NNW 8.1 mph 17.3 mph N/A   Clear
12:52 PM 59.0 °F 41.0 °F 51% 30.05 in 10.0 mi WNW 6.9 mph - N/A   Clear
1:12 PM 59.0 °F 41.0 °F 51% 30.05 in 10.0 mi North 6.9 mph - N/A   Clear
1:32 PM 60.8 °F 41.0 °F 48% 30.04 in 10.0 mi WNW 6.9 mph - N/A   Clear
1:52 PM 60.8 °F 41.0 °F 48% 30.03 in 10.0 mi Calm Calm - N/A   Clear
2:12 PM 60.8 °F 42.8 °F 52% 30.03 in 10.0 mi WNW 4.6 mph - N/A   Clear
2:32 PM 62.6 °F 42.8 °F 48% 30.02 in 10.0 mi West 5.8 mph - N/A   Clear
2:52 PM 62.6 °F 42.8 °F 48% 30.02 in 10.0 mi West 6.9 mph - N/A   Clear
3:12 PM 62.6 °F 41.0 °F 45% 30.00 in 10.0 mi WNW 6.9 mph - N/A   Clear
3:32 PM 64.4 °F 42.8 °F 45% 29.99 in 10.0 mi WNW 8.1 mph - N/A   Clear
3:52 PM 64.4 °F 42.8 °F 45% 29.99 in 10.0 mi NW 5.8 mph - N/A   Clear
4:12 PM 64.4 °F 41.0 °F 42% 29.98 in 10.0 mi WNW 5.8 mph - N/A   Clear
4:32 PM 66.2 °F 41.0 °F 40% 29.97 in 10.0 mi West 9.2 mph - N/A   Clear
5:12 PM 66.2 °F 41.0 °F 40% 29.97 in 10.0 mi WNW 6.9 mph - N/A   Clear
5:32 PM 66.2 °F 41.0 °F 40% 29.97 in 10.0 mi West 6.9 mph - N/A   Clear
5:52 PM 66.2 °F 41.0 °F 40% 29.97 in 10.0 mi West 6.9 mph - N/A   Clear
6:12 PM 66.2 °F 42.8 °F 43% 29.97 in 10.0 mi West 8.1 mph - N/A   Clear
6:32 PM 64.4 °F 42.8 °F 45% 29.96 in 10.0 mi NW 4.6 mph - N/A   Clear
6:52 PM 64.4 °F 42.8 °F 45% 29.96 in 10.0 mi NW 6.9 mph - N/A   Clear
7:12 PM 64.4 °F 42.8 °F 45% 29.96 in 10.0 mi WNW 4.6 mph - N/A   Clear
7:32 PM 62.6 °F 42.8 °F 48% 29.97 in 10.0 mi NW 6.9 mph - N/A   Clear
7:52 PM 62.6 °F 42.8 °F 48% 29.97 in 10.0 mi WNW 4.6 mph - N/A   Clear
8:12 PM 60.8 °F 42.8 °F 52% 29.97 in 10.0 mi WNW 3.5 mph - N/A   Clear
8:32 PM 59.0 °F 42.8 °F 55% 29.98 in 10.0 mi NW 4.6 mph - N/A   Clear
8:52 PM 59.0 °F 44.6 °F 59% 29.98 in 10.0 mi NW 4.6 mph - N/A   Clear
9:12 PM 57.2 °F 44.6 °F 63% 29.99 in 10.0 mi NW 3.5 mph - N/A   Clear
9:32 PM 53.6 °F 46.4 °F 77% 29.99 in 10.0 mi Calm Calm - N/A   Clear
9:52 PM 51.8 °F 46.4 °F 82% 29.99 in 10.0 mi Calm Calm - N/A   Clear
10:12 PM 51.8 °F 46.4 °F 82% 29.99 in 10.0 mi Calm Calm - N/A   Clear
10:32 PM 51.8 °F 46.4 °F 82% 30.00 in 10.0 mi Calm Calm - N/A   Clear
10:52 PM 50.0 °F 46.4 °F 87% 30.01 in 10.0 mi Calm Calm - N/A   Clear
11:12 PM 50.0 °F 46.4 °F 87% 30.00 in 10.0 mi Calm Calm - N/A   Clear
11:32 PM 48.2 °F 46.4 °F 93% 30.00 in 10.0 mi Calm Calm - N/A   Clear
11:52 PM 48.2 °F 46.4 °F 93% 30.00 in 10.0 mi North 5.8 mph - N/A   Clear